Aviation Digital Data Service (ADDS)

Output produced by METARs form (0619 UTC 07 December 2022)
found at http://www.aviationweather.gov/metar/data/
 
METAR text: EFIV 070550Z AUTO 24003KT 6000 -SN OVC011 M05/M06 Q1002
Conditions at: EFIV (IVALO , FI) observed 0550 UTC 07 December 2022
Temperature: -5.0°C (23°F)
Dewpoint: -6.0°C (21°F) [RH = 93%]
Pressure (altimeter): 29.59 inches Hg (1002.0 mb)
Winds: from the WSW (240 degrees) at 3 MPH (3 knots; 1.5 m/s)
Visibility: 4 miles ( 6 km)
Ceiling: 1100 feet AGL
Clouds: overcast cloud deck at 1100 feet AGL
Weather: -SN  (light snow)

METAR text: EFIV 070520Z AUTO 23003KT 9999 -SN OVC009 M05/M06 Q1002
Conditions at: EFIV (IVALO , FI) observed 0520 UTC 07 December 2022
Temperature: -5.0°C (23°F)
Dewpoint: -6.0°C (21°F) [RH = 93%]
Pressure (altimeter): 29.59 inches Hg (1002.0 mb)
Winds: from the SW (230 degrees) at 3 MPH (3 knots; 1.5 m/s)
Visibility: 6 or more miles (10+ km)
Ceiling: 900 feet AGL
Clouds: overcast cloud deck at 900 feet AGL
Weather: -SN  (light snow)

METAR text: EFIV 070450Z AUTO 23005KT 9999 -SN OVC009 M05/M06 Q1001
Conditions at: EFIV (IVALO , FI) observed 0450 UTC 07 December 2022
Temperature: -5.0°C (23°F)
Dewpoint: -6.0°C (21°F) [RH = 93%]
Pressure (altimeter): 29.56 inches Hg (1001.0 mb)
Winds: from the SW (230 degrees) at 6 MPH (5 knots; 2.6 m/s)
Visibility: 6 or more miles (10+ km)
Ceiling: 900 feet AGL
Clouds: overcast cloud deck at 900 feet AGL
Weather: -SN  (light snow)

METAR text: EFIV 070420Z AUTO 25005KT 9999 -SN OVC009 M06/M06 Q1001
Conditions at: EFIV (IVALO , FI) observed 0420 UTC 07 December 2022
Temperature: -6.0°C (21°F)
Dewpoint: -6.0°C (21°F) [RH = 100%]
Pressure (altimeter): 29.56 inches Hg (1001.0 mb)
Winds: from the WSW (250 degrees) at 6 MPH (5 knots; 2.6 m/s)
Visibility: 6 or more miles (10+ km)
Ceiling: 900 feet AGL
Clouds: overcast cloud deck at 900 feet AGL
Weather: -SN  (light snow)

METAR text: EFIV 070350Z AUTO 22004KT 9000 -SN OVC010 M06/M06 Q1001
Conditions at: EFIV (IVALO , FI) observed 0350 UTC 07 December 2022
Temperature: -6.0°C (21°F)
Dewpoint: -6.0°C (21°F) [RH = 100%]
Pressure (altimeter): 29.56 inches Hg (1001.0 mb)
Winds: from the SW (220 degrees) at 5 MPH (4 knots; 2.1 m/s)
Visibility: 6 miles ( 9 km)
Ceiling: 1000 feet AGL
Clouds: overcast cloud deck at 1000 feet AGL
Weather: -SN  (light snow)

METAR text: EFIV 070320Z AUTO 24004KT 9999 -SN OVC011 M06/M07 Q1001
Conditions at: EFIV (IVALO , FI) observed 0320 UTC 07 December 2022
Temperature: -6.0°C (21°F)
Dewpoint: -7.0°C (19°F) [RH = 93%]
Pressure (altimeter): 29.56 inches Hg (1001.0 mb)
Winds: from the WSW (240 degrees) at 5 MPH (4 knots; 2.1 m/s)
Visibility: 6 or more miles (10+ km)
Ceiling: 1100 feet AGL
Clouds: overcast cloud deck at 1100 feet AGL
Weather: -SN  (light snow)

METAR text: EFIV 070250Z AUTO 23005KT 9999 -SN SCT011 BKN014 OVC023 M06/M07 Q1001
Conditions at: EFIV (IVALO , FI) observed 0250 UTC 07 December 2022
Temperature: -6.0°C (21°F)
Dewpoint: -7.0°C (19°F) [RH = 93%]
Pressure (altimeter): 29.56 inches Hg (1001.0 mb)
Winds: from the SW (230 degrees) at 6 MPH (5 knots; 2.6 m/s)
Visibility: 6 or more miles (10+ km)
Ceiling: 1400 feet AGL
Clouds: scattered clouds at 1100 feet AGL
broken clouds at 1400 feet AGL
overcast cloud deck at 2300 feet AGL
Weather: -SN  (light snow)

METAR text: EFIV 070220Z AUTO 23003KT 6000 -SN OVC012 M06/M07 Q1001
Conditions at: EFIV (IVALO , FI) observed 0220 UTC 07 December 2022
Temperature: -6.0°C (21°F)
Dewpoint: -7.0°C (19°F) [RH = 93%]
Pressure (altimeter): 29.56 inches Hg (1001.0 mb)
Winds: from the SW (230 degrees) at 3 MPH (3 knots; 1.5 m/s)
Visibility: 4 miles ( 6 km)
Ceiling: 1200 feet AGL
Clouds: overcast cloud deck at 1200 feet AGL
Weather: -SN  (light snow)

METAR text: EFIV 070150Z AUTO VRB02KT 9999 -SHSN OVC011 M06/M07 Q1001
Conditions at: EFIV (IVALO , FI) observed 0150 UTC 07 December 2022
Temperature: -6.0°C (21°F)
Dewpoint: -7.0°C (19°F) [RH = 93%]
Pressure (altimeter): 29.56 inches Hg (1001.0 mb)
Winds: variable direction winds at 2 MPH (2 knots; 1.0 m/s)
Visibility: 6 or more miles (10+ km)
Ceiling: 1100 feet AGL
Clouds: overcast cloud deck at 1100 feet AGL
Weather: -SHSN  (light snow showers)

METAR text: EFIV 070120Z AUTO 24004KT 9999 -SHSN OVC009 M06/M07 Q1001
Conditions at: EFIV (IVALO , FI) observed 0120 UTC 07 December 2022
Temperature: -6.0°C (21°F)
Dewpoint: -7.0°C (19°F) [RH = 93%]
Pressure (altimeter): 29.56 inches Hg (1001.0 mb)
Winds: from the WSW (240 degrees) at 5 MPH (4 knots; 2.1 m/s)
Visibility: 6 or more miles (10+ km)
Ceiling: 900 feet AGL
Clouds: overcast cloud deck at 900 feet AGL
Weather: -SHSN  (light snow showers)

METAR text: EFIV 070050Z AUTO 26003KT 9999 OVC009 M07/M08 Q1001
Conditions at: EFIV (IVALO , FI) observed 0050 UTC 07 December 2022
Temperature: -7.0°C (19°F)
Dewpoint: -8.0°C (18°F) [RH = 93%]
Pressure (altimeter): 29.56 inches Hg (1001.0 mb)
Winds: from the W (260 degrees) at 3 MPH (3 knots; 1.5 m/s)
Visibility: 6 or more miles (10+ km)
Ceiling: 900 feet AGL
Clouds: overcast cloud deck at 900 feet AGL
Weather: no significant weather observed at this time

METAR text: EFIV 070020Z AUTO 25003KT 9999 OVC010 M07/M08 Q1001
Conditions at: EFIV (IVALO , FI) observed 0020 UTC 07 December 2022
Temperature: -7.0°C (19°F)
Dewpoint: -8.0°C (18°F) [RH = 93%]
Pressure (altimeter): 29.56 inches Hg (1001.0 mb)
Winds: from the WSW (250 degrees) at 3 MPH (3 knots; 1.5 m/s)
Visibility: 6 or more miles (10+ km)
Ceiling: 1000 feet AGL
Clouds: overcast cloud deck at 1000 feet AGL
Weather: no significant weather observed at this time

METAR text: EFIV 062350Z AUTO VRB02KT 9999 OVC010 M07/M08 Q1001
Conditions at: EFIV (IVALO , FI) observed 2350 UTC 06 December 2022
Temperature: -7.0°C (19°F)
Dewpoint: -8.0°C (18°F) [RH = 93%]
Pressure (altimeter): 29.56 inches Hg (1001.0 mb)
Winds: variable direction winds at 2 MPH (2 knots; 1.0 m/s)
Visibility: 6 or more miles (10+ km)
Ceiling: 1000 feet AGL
Clouds: overcast cloud deck at 1000 feet AGL
Weather: no significant weather observed at this time

METAR text: EFIV 062320Z AUTO 21003KT 170V230 9999 -SHSN OVC008 M07/M08 Q1001
Conditions at: EFIV (IVALO , FI) observed 2320 UTC 06 December 2022
Temperature: -7.0°C (19°F)
Dewpoint: -8.0°C (18°F) [RH = 93%]
Pressure (altimeter): 29.56 inches Hg (1001.0 mb)
Winds: from the SSW (210 degrees) at 3 MPH (3 knots; 1.5 m/s)
Visibility: 6 or more miles (10+ km)
Ceiling: 800 feet AGL
Clouds: overcast cloud deck at 800 feet AGL
Weather: -SHSN  (light snow showers)

METAR text: EFIV 062250Z AUTO 22004KT 9999 BKN008 BKN014 M08/M09 Q1000
Conditions at: EFIV (IVALO , FI) observed 2250 UTC 06 December 2022
Temperature: -8.0°C (18°F)
Dewpoint: -9.0°C (16°F) [RH = 92%]
Pressure (altimeter): 29.53 inches Hg (1000.0 mb)
Winds: from the SW (220 degrees) at 5 MPH (4 knots; 2.1 m/s)
Visibility: 6 or more miles (10+ km)
Ceiling: 800 feet AGL
Clouds: broken clouds at 800 feet AGL
broken clouds at 1400 feet AGL
Weather: no significant weather observed at this time

METAR text: EFIV 062220Z AUTO 25004KT 9999 OVC016 M09/M10 Q1000
Conditions at: EFIV (IVALO , FI) observed 2220 UTC 06 December 2022
Temperature: -9.0°C (16°F)
Dewpoint: -10.0°C (14°F) [RH = 92%]
Pressure (altimeter): 29.53 inches Hg (1000.0 mb)
Winds: from the WSW (250 degrees) at 5 MPH (4 knots; 2.1 m/s)
Visibility: 6 or more miles (10+ km)
Ceiling: 1600 feet AGL
Clouds: overcast cloud deck at 1600 feet AGL
Weather: no significant weather observed at this time

METAR text: EFIV 062150Z AUTO 23003KT 9999 -SN NCD M08/M09 Q1000
Conditions at: EFIV (IVALO , FI) observed 2150 UTC 06 December 2022
Temperature: -8.0°C (18°F)
Dewpoint: -9.0°C (16°F) [RH = 92%]
Pressure (altimeter): 29.53 inches Hg (1000.0 mb)
Winds: from the SW (230 degrees) at 3 MPH (3 knots; 1.5 m/s)
Visibility: 6 or more miles (10+ km)
Ceiling: at least 12,000 feet AGL
Clouds: sky clear below 12,000 feet AGL
Weather: -SN  (light snow)

METAR text: EFIV 062120Z AUTO 24004KT 9999 -SN FEW021 M07/M08 Q1000
Conditions at: EFIV (IVALO , FI) observed 2120 UTC 06 December 2022
Temperature: -7.0°C (19°F)
Dewpoint: -8.0°C (18°F) [RH = 93%]
Pressure (altimeter): 29.53 inches Hg (1000.0 mb)
Winds: from the WSW (240 degrees) at 5 MPH (4 knots; 2.1 m/s)
Visibility: 6 or more miles (10+ km)
Ceiling: at least 12,000 feet AGL
Clouds: few clouds at 2100 feet AGL
Weather: -SN  (light snow)

METAR text: EFIV 062050Z AUTO 23004KT 5000 -SN BKN004 OVC027 M06/M07 Q1000
Conditions at: EFIV (IVALO , FI) observed 2050 UTC 06 December 2022
Temperature: -6.0°C (21°F)
Dewpoint: -7.0°C (19°F) [RH = 93%]
Pressure (altimeter): 29.53 inches Hg (1000.0 mb)
Winds: from the SW (230 degrees) at 5 MPH (4 knots; 2.1 m/s)
Visibility: 3 miles ( 5 km)
Ceiling: 400 feet AGL
Clouds: broken clouds at 400 feet AGL
overcast cloud deck at 2700 feet AGL
Weather: -SN  (light snow)

METAR text: EFIV 062020Z AUTO 22003KT 6000 -SN OVC003 M06/M06 Q1000
Conditions at: EFIV (IVALO , FI) observed 2020 UTC 06 December 2022
Temperature: -6.0°C (21°F)
Dewpoint: -6.0°C (21°F) [RH = 100%]
Pressure (altimeter): 29.53 inches Hg (1000.0 mb)
Winds: from the SW (220 degrees) at 3 MPH (3 knots; 1.5 m/s)
Visibility: 4 miles ( 6 km)
Ceiling: 300 feet AGL
Clouds: overcast cloud deck at 300 feet AGL
Weather: -SN  (light snow)

METAR text: EFIV 061950Z AUTO 26003KT 9999 OVC002 M06/M06 Q1000
Conditions at: EFIV (IVALO , FI) observed 1950 UTC 06 December 2022
Temperature: -6.0°C (21°F)
Dewpoint: -6.0°C (21°F) [RH = 100%]
Pressure (altimeter): 29.53 inches Hg (1000.0 mb)
Winds: from the W (260 degrees) at 3 MPH (3 knots; 1.5 m/s)
Visibility: 6 or more miles (10+ km)
Ceiling: 200 feet AGL
Clouds: overcast cloud deck at 200 feet AGL
Weather: no significant weather observed at this time

METAR text: EFIV 061920Z AUTO 22003KT 9999 OVC002 M06/M06 Q0999
Conditions at: EFIV (IVALO , FI) observed 1920 UTC 06 December 2022
Temperature: -6.0°C (21°F)
Dewpoint: -6.0°C (21°F) [RH = 100%]
Pressure (altimeter): 29.50 inches Hg (999.0 mb)
Winds: from the SW (220 degrees) at 3 MPH (3 knots; 1.5 m/s)
Visibility: 6 or more miles (10+ km)
Ceiling: 200 feet AGL
Clouds: overcast cloud deck at 200 feet AGL
Weather: no significant weather observed at this time

METAR text: EFIV 061850Z AUTO 25003KT 9999 OVC003 M06/M07 Q0999
Conditions at: EFIV (IVALO , FI) observed 1850 UTC 06 December 2022
Temperature: -6.0°C (21°F)
Dewpoint: -7.0°C (19°F) [RH = 93%]
Pressure (altimeter): 29.50 inches Hg (999.0 mb)
Winds: from the WSW (250 degrees) at 3 MPH (3 knots; 1.5 m/s)
Visibility: 6 or more miles (10+ km)
Ceiling: 300 feet AGL
Clouds: overcast cloud deck at 300 feet AGL
Weather: no significant weather observed at this time

METAR text: EFIV 061820Z AUTO 26003KT 9999 OVC004 M06/M07 Q0999
Conditions at: EFIV (IVALO , FI) observed 1820 UTC 06 December 2022
Temperature: -6.0°C (21°F)
Dewpoint: -7.0°C (19°F) [RH = 93%]
Pressure (altimeter): 29.50 inches Hg (999.0 mb)
Winds: from the W (260 degrees) at 3 MPH (3 knots; 1.5 m/s)
Visibility: 6 or more miles (10+ km)
Ceiling: 400 feet AGL
Clouds: overcast cloud deck at 400 feet AGL
Weather: no significant weather observed at this time

METAR text: EFIV 061750Z AUTO 23004KT 9999 OVC005 M06/M06 Q0999
Conditions at: EFIV (IVALO , FI) observed 1750 UTC 06 December 2022
Temperature: -6.0°C (21°F)
Dewpoint: -6.0°C (21°F) [RH = 100%]
Pressure (altimeter): 29.50 inches Hg (999.0 mb)
Winds: from the SW (230 degrees) at 5 MPH (4 knots; 2.1 m/s)
Visibility: 6 or more miles (10+ km)
Ceiling: 500 feet AGL
Clouds: overcast cloud deck at 500 feet AGL
Weather: no significant weather observed at this time

METAR text: EFIV 061720Z 23005KT 9999 -SN OVC004 M06/M07 Q0999
Conditions at: EFIV (IVALO , FI) observed 1720 UTC 06 December 2022
Temperature: -6.0°C (21°F)
Dewpoint: -7.0°C (19°F) [RH = 93%]
Pressure (altimeter): 29.50 inches Hg (999.0 mb)
Winds: from the SW (230 degrees) at 6 MPH (5 knots; 2.6 m/s)
Visibility: 6 or more miles (10+ km)
Ceiling: 400 feet AGL
Clouds: overcast cloud deck at 400 feet AGL
Weather: -SN  (light snow)

METAR text: EFIV 061650Z VRB02KT 9999 -SN OVC004 M05/M06 Q0998
Conditions at: EFIV (IVALO , FI) observed 1650 UTC 06 December 2022
Temperature: -5.0°C (23°F)
Dewpoint: -6.0°C (21°F) [RH = 93%]
Pressure (altimeter): 29.47 inches Hg (998.0 mb)
Winds: variable direction winds at 2 MPH (2 knots; 1.0 m/s)
Visibility: 6 or more miles (10+ km)
Ceiling: 400 feet AGL
Clouds: overcast cloud deck at 400 feet AGL
Weather: -SN  (light snow)

METAR text: EFIV 061620Z 24003KT 9999 -SN OVC005 M05/M06 Q0998
Conditions at: EFIV (IVALO , FI) observed 1620 UTC 06 December 2022
Temperature: -5.0°C (23°F)
Dewpoint: -6.0°C (21°F) [RH = 93%]
Pressure (altimeter): 29.47 inches Hg (998.0 mb)
Winds: from the WSW (240 degrees) at 3 MPH (3 knots; 1.5 m/s)
Visibility: 6 or more miles (10+ km)
Ceiling: 500 feet AGL
Clouds: overcast cloud deck at 500 feet AGL
Weather: -SN  (light snow)

METAR text: EFIV 061550Z 23003KT 9999 -SN OVC006 M06/M07 Q0998
Conditions at: EFIV (IVALO , FI) observed 1550 UTC 06 December 2022
Temperature: -6.0°C (21°F)
Dewpoint: -7.0°C (19°F) [RH = 93%]
Pressure (altimeter): 29.47 inches Hg (998.0 mb)
Winds: from the SW (230 degrees) at 3 MPH (3 knots; 1.5 m/s)
Visibility: 6 or more miles (10+ km)
Ceiling: 600 feet AGL
Clouds: overcast cloud deck at 600 feet AGL
Weather: -SN  (light snow)

METAR text: EFIV 061520Z AUTO 23002KT 9999 -SHSN OVC007 M05/M06 Q0998
Conditions at: EFIV (IVALO , FI) observed 1520 UTC 06 December 2022
Temperature: -5.0°C (23°F)
Dewpoint: -6.0°C (21°F) [RH = 93%]
Pressure (altimeter): 29.47 inches Hg (998.0 mb)
Winds: from the SW (230 degrees) at 2 MPH (2 knots; 1.0 m/s)
Visibility: 6 or more miles (10+ km)
Ceiling: 700 feet AGL
Clouds: overcast cloud deck at 700 feet AGL
Weather: -SHSN  (light snow showers)

METAR text: EFIV 061450Z AUTO 03002KT 9999 -SN OVC007 M06/M06 Q0998
Conditions at: EFIV (IVALO , FI) observed 1450 UTC 06 December 2022
Temperature: -6.0°C (21°F)
Dewpoint: -6.0°C (21°F) [RH = 100%]
Pressure (altimeter): 29.47 inches Hg (998.0 mb)
Winds: from the NNE (30 degrees) at 2 MPH (2 knots; 1.0 m/s)
Visibility: 6 or more miles (10+ km)
Ceiling: 700 feet AGL
Clouds: overcast cloud deck at 700 feet AGL
Weather: -SN  (light snow)

METAR text: EFIV 061420Z AUTO 05002KT 7000 -SN BKN007 OVC031 M05/M06 Q0998
Conditions at: EFIV (IVALO , FI) observed 1420 UTC 06 December 2022
Temperature: -5.0°C (23°F)
Dewpoint: -6.0°C (21°F) [RH = 93%]
Pressure (altimeter): 29.47 inches Hg (998.0 mb)
Winds: from the NE (50 degrees) at 2 MPH (2 knots; 1.0 m/s)
Visibility: 4 miles ( 7 km)
Ceiling: 700 feet AGL
Clouds: broken clouds at 700 feet AGL
overcast cloud deck at 3100 feet AGL
Weather: -SN  (light snow)

METAR text: EFIV 061350Z AUTO 00000KT 8000 -SN OVC033 M05/M06 Q0998
Conditions at: EFIV (IVALO , FI) observed 1350 UTC 06 December 2022
Temperature: -5.0°C (23°F)
Dewpoint: -6.0°C (21°F) [RH = 93%]
Pressure (altimeter): 29.47 inches Hg (998.0 mb)
Winds: calm
Visibility: 5 miles ( 8 km)
Ceiling: 3300 feet AGL
Clouds: overcast cloud deck at 3300 feet AGL
Weather: -SN  (light snow)

METAR text: EFIV 061320Z 00000KT 4000 -SN OVC029 M05/M05 Q0997
Conditions at: EFIV (IVALO , FI) observed 1320 UTC 06 December 2022
Temperature: -5.0°C (23°F)
Dewpoint: -5.0°C (23°F) [RH = 100%]
Pressure (altimeter): 29.44 inches Hg (997.0 mb)
Winds: calm
Visibility: 2.49 miles (4.01 km)
Ceiling: 2900 feet AGL
Clouds: overcast cloud deck at 2900 feet AGL
Weather: -SN  (light snow)

METAR text: EFIV 061250Z VRB01KT 4000 -SN OVC031 M05/M05 Q0997
Conditions at: EFIV (IVALO , FI) observed 1250 UTC 06 December 2022
Temperature: -5.0°C (23°F)
Dewpoint: -5.0°C (23°F) [RH = 100%]
Pressure (altimeter): 29.44 inches Hg (997.0 mb)
Winds: variable direction winds at 1 MPH (1 knots; 0.5 m/s)
Visibility: 2.49 miles (4.01 km)
Ceiling: 3100 feet AGL
Clouds: overcast cloud deck at 3100 feet AGL
Weather: -SN  (light snow)

METAR text: EFIV 061220Z VRB01KT 4000 -SN BKN016 OVC039 M05/M05 Q0997
Conditions at: EFIV (IVALO , FI) observed 1220 UTC 06 December 2022
Temperature: -5.0°C (23°F)
Dewpoint: -5.0°C (23°F) [RH = 100%]
Pressure (altimeter): 29.44 inches Hg (997.0 mb)
Winds: variable direction winds at 1 MPH (1 knots; 0.5 m/s)
Visibility: 2.49 miles (4.01 km)
Ceiling: 1600 feet AGL
Clouds: broken clouds at 1600 feet AGL
overcast cloud deck at 3900 feet AGL
Weather: -SN  (light snow)

METAR text: EFIV 061150Z 00000KT 5000 -SN FEW015 BKN042 M05/M05 Q0997
Conditions at: EFIV (IVALO , FI) observed 1150 UTC 06 December 2022
Temperature: -5.0°C (23°F)
Dewpoint: -5.0°C (23°F) [RH = 100%]
Pressure (altimeter): 29.44 inches Hg (997.0 mb)
Winds: calm
Visibility: 3 miles ( 5 km)
Ceiling: 4200 feet AGL
Clouds: few clouds at 1500 feet AGL
broken clouds at 4200 feet AGL
Weather: -SN  (light snow)

METAR text: EFIV 061120Z VRB01KT 7000 -SN OVC042 M04/M05 Q0997
Conditions at: EFIV (IVALO , FI) observed 1120 UTC 06 December 2022
Temperature: -4.0°C (25°F)
Dewpoint: -5.0°C (23°F) [RH = 93%]
Pressure (altimeter): 29.44 inches Hg (997.0 mb)
Winds: variable direction winds at 1 MPH (1 knots; 0.5 m/s)
Visibility: 4 miles ( 7 km)
Ceiling: 4200 feet AGL
Clouds: overcast cloud deck at 4200 feet AGL
Weather: -SN  (light snow)

METAR text: EFIV 061050Z VRB01KT 5000 -SN OVC038 M05/M05 Q0997
Conditions at: EFIV (IVALO , FI) observed 1050 UTC 06 December 2022
Temperature: -5.0°C (23°F)
Dewpoint: -5.0°C (23°F) [RH = 100%]
Pressure (altimeter): 29.44 inches Hg (997.0 mb)
Winds: variable direction winds at 1 MPH (1 knots; 0.5 m/s)
Visibility: 3 miles ( 5 km)
Ceiling: 3800 feet AGL
Clouds: overcast cloud deck at 3800 feet AGL
Weather: -SN  (light snow)

METAR text: EFIV 061020Z 00000KT 8000 -SN OVC040 M05/M05 Q0997
Conditions at: EFIV (IVALO , FI) observed 1020 UTC 06 December 2022
Temperature: -5.0°C (23°F)
Dewpoint: -5.0°C (23°F) [RH = 100%]
Pressure (altimeter): 29.44 inches Hg (997.0 mb)
Winds: calm
Visibility: 5 miles ( 8 km)
Ceiling: 4000 feet AGL
Clouds: overcast cloud deck at 4000 feet AGL
Weather: -SN  (light snow)

METAR text: EFIV 060950Z VRB01KT 8000 -SN OVC014 M05/M05 Q0997
Conditions at: EFIV (IVALO , FI) observed 0950 UTC 06 December 2022
Temperature: -5.0°C (23°F)
Dewpoint: -5.0°C (23°F) [RH = 100%]
Pressure (altimeter): 29.44 inches Hg (997.0 mb)
Winds: variable direction winds at 1 MPH (1 knots; 0.5 m/s)
Visibility: 5 miles ( 8 km)
Ceiling: 1400 feet AGL
Clouds: overcast cloud deck at 1400 feet AGL
Weather: -SN  (light snow)

METAR text: EFIV 060920Z 00000KT 6000 -SN SCT015 OVC019 M04/M05 Q0997
Conditions at: EFIV (IVALO , FI) observed 0920 UTC 06 December 2022
Temperature: -4.0°C (25°F)
Dewpoint: -5.0°C (23°F) [RH = 93%]
Pressure (altimeter): 29.44 inches Hg (997.0 mb)
Winds: calm
Visibility: 4 miles ( 6 km)
Ceiling: 1900 feet AGL
Clouds: scattered clouds at 1500 feet AGL
overcast cloud deck at 1900 feet AGL
Weather: -SN  (light snow)

METAR text: EFIV 060850Z VRB01KT 6000 -SN SCT015 OVC019 M04/M05 Q0997
Conditions at: EFIV (IVALO , FI) observed 0850 UTC 06 December 2022
Temperature: -4.0°C (25°F)
Dewpoint: -5.0°C (23°F) [RH = 93%]
Pressure (altimeter): 29.44 inches Hg (997.0 mb)
Winds: variable direction winds at 1 MPH (1 knots; 0.5 m/s)
Visibility: 4 miles ( 6 km)
Ceiling: 1900 feet AGL
Clouds: scattered clouds at 1500 feet AGL
overcast cloud deck at 1900 feet AGL
Weather: -SN  (light snow)

METAR text: EFIV 060820Z 26001KT 3500 -SN OVC024 M04/M05 Q0997
Conditions at: EFIV (IVALO , FI) observed 0820 UTC 06 December 2022
Temperature: -4.0°C (25°F)
Dewpoint: -5.0°C (23°F) [RH = 93%]
Pressure (altimeter): 29.44 inches Hg (997.0 mb)
Winds: from the W (260 degrees) at 1 MPH (1 knots; 0.5 m/s)
Visibility: 2.17 miles (3.49 km)
Ceiling: 2400 feet AGL
Clouds: overcast cloud deck at 2400 feet AGL
Weather: -SN  (light snow)

METAR text: EFIV 060720Z AUTO 00000KT 4200 -SN OVC022 M04/M05 Q0997
Conditions at: EFIV (IVALO , FI) observed 0720 UTC 06 December 2022
Temperature: -4.0°C (25°F)
Dewpoint: -5.0°C (23°F) [RH = 93%]
Pressure (altimeter): 29.44 inches Hg (997.0 mb)
Winds: calm
Visibility: 2.61 miles (4.20 km)
Ceiling: 2200 feet AGL
Clouds: overcast cloud deck at 2200 feet AGL
Weather: -SN  (light snow)

METAR text: EFIV 060650Z AUTO VRB01KT 5000 -SN OVC022 M04/M05 Q0997
Conditions at: EFIV (IVALO , FI) observed 0650 UTC 06 December 2022
Temperature: -4.0°C (25°F)
Dewpoint: -5.0°C (23°F) [RH = 93%]
Pressure (altimeter): 29.44 inches Hg (997.0 mb)
Winds: variable direction winds at 1 MPH (1 knots; 0.5 m/s)
Visibility: 3 miles ( 5 km)
Ceiling: 2200 feet AGL
Clouds: overcast cloud deck at 2200 feet AGL
Weather: -SN  (light snow)

METAR text: EFIV 060620Z AUTO 29002KT 5000 -SN OVC030 M04/M05 Q0997
Conditions at: EFIV (IVALO , FI) observed 0620 UTC 06 December 2022
Temperature: -4.0°C (25°F)
Dewpoint: -5.0°C (23°F) [RH = 93%]
Pressure (altimeter): 29.44 inches Hg (997.0 mb)
Winds: from the WNW (290 degrees) at 2 MPH (2 knots; 1.0 m/s)
Visibility: 3 miles ( 5 km)
Ceiling: 3000 feet AGL
Clouds: overcast cloud deck at 3000 feet AGL
Weather: -SN  (light snow)

METAR text: EFIV 060550Z AUTO 23005KT 9999 -SN OVC025 M04/M05 Q0997
Conditions at: EFIV (IVALO , FI) observed 0550 UTC 06 December 2022
Temperature: -4.0°C (25°F)
Dewpoint: -5.0°C (23°F) [RH = 93%]
Pressure (altimeter): 29.44 inches Hg (997.0 mb)
Winds: from the SW (230 degrees) at 6 MPH (5 knots; 2.6 m/s)
Visibility: 6 or more miles (10+ km)
Ceiling: 2500 feet AGL
Clouds: overcast cloud deck at 2500 feet AGL
Weather: -SN  (light snow)

METAR text: EFIV 060520Z AUTO 25003KT 9999 -SN SCT028 M04/M05 Q0998
Conditions at: EFIV (IVALO , FI) observed 0520 UTC 06 December 2022
Temperature: -4.0°C (25°F)
Dewpoint: -5.0°C (23°F) [RH = 93%]
Pressure (altimeter): 29.47 inches Hg (998.0 mb)
Winds: from the WSW (250 degrees) at 3 MPH (3 knots; 1.5 m/s)
Visibility: 6 or more miles (10+ km)
Ceiling: at least 12,000 feet AGL
Clouds: scattered clouds at 2800 feet AGL
Weather: -SN  (light snow)

METAR text: EFIV 060450Z AUTO 23005KT 9999 -SN OVC041 M04/M05 Q0998
Conditions at: EFIV (IVALO , FI) observed 0450 UTC 06 December 2022
Temperature: -4.0°C (25°F)
Dewpoint: -5.0°C (23°F) [RH = 93%]
Pressure (altimeter): 29.47 inches Hg (998.0 mb)
Winds: from the SW (230 degrees) at 6 MPH (5 knots; 2.6 m/s)
Visibility: 6 or more miles (10+ km)
Ceiling: 4100 feet AGL
Clouds: overcast cloud deck at 4100 feet AGL
Weather: -SN  (light snow)

METAR text: EFIV 060420Z AUTO 20002KT 9999 -SN SCT022 OVC044 M04/M05 Q0998
Conditions at: EFIV (IVALO , FI) observed 0420 UTC 06 December 2022
Temperature: -4.0°C (25°F)
Dewpoint: -5.0°C (23°F) [RH = 93%]
Pressure (altimeter): 29.47 inches Hg (998.0 mb)
Winds: from the SSW (200 degrees) at 2 MPH (2 knots; 1.0 m/s)
Visibility: 6 or more miles (10+ km)
Ceiling: 4400 feet AGL
Clouds: scattered clouds at 2200 feet AGL
overcast cloud deck at 4400 feet AGL
Weather: -SN  (light snow)

METAR text: EFIV 060350Z AUTO 24004KT 9999 -SN FEW031 OVC035 M05/M06 Q0998
Conditions at: EFIV (IVALO , FI) observed 0350 UTC 06 December 2022
Temperature: -5.0°C (23°F)
Dewpoint: -6.0°C (21°F) [RH = 93%]
Pressure (altimeter): 29.47 inches Hg (998.0 mb)
Winds: from the WSW (240 degrees) at 5 MPH (4 knots; 2.1 m/s)
Visibility: 6 or more miles (10+ km)
Ceiling: 3500 feet AGL
Clouds: few clouds at 3100 feet AGL
overcast cloud deck at 3500 feet AGL
Weather: -SN  (light snow)

METAR text: EFIV 060320Z AUTO 24006KT 9999 -SN OVC033 M05/M06 Q0999
Conditions at: EFIV (IVALO , FI) observed 0320 UTC 06 December 2022
Temperature: -5.0°C (23°F)
Dewpoint: -6.0°C (21°F) [RH = 93%]
Pressure (altimeter): 29.50 inches Hg (999.0 mb)
Winds: from the WSW (240 degrees) at 7 MPH (6 knots; 3.1 m/s)
Visibility: 6 or more miles (10+ km)
Ceiling: 3300 feet AGL
Clouds: overcast cloud deck at 3300 feet AGL
Weather: -SN  (light snow)

METAR text: EFIV 060250Z AUTO 23007KT 9999 -SN OVC027 M05/M06 Q0999
Conditions at: EFIV (IVALO , FI) observed 0250 UTC 06 December 2022
Temperature: -5.0°C (23°F)
Dewpoint: -6.0°C (21°F) [RH = 93%]
Pressure (altimeter): 29.50 inches Hg (999.0 mb)
Winds: from the SW (230 degrees) at 8 MPH (7 knots; 3.6 m/s)
Visibility: 6 or more miles (10+ km)
Ceiling: 2700 feet AGL
Clouds: overcast cloud deck at 2700 feet AGL
Weather: -SN  (light snow)

METAR text: EFIV 060220Z AUTO 23006KT 9999 -SHSN FEW007 OVC049 M05/M06 Q0999
Conditions at: EFIV (IVALO , FI) observed 0220 UTC 06 December 2022
Temperature: -5.0°C (23°F)
Dewpoint: -6.0°C (21°F) [RH = 93%]
Pressure (altimeter): 29.50 inches Hg (999.0 mb)
Winds: from the SW (230 degrees) at 7 MPH (6 knots; 3.1 m/s)
Visibility: 6 or more miles (10+ km)
Ceiling: 4900 feet AGL
Clouds: few clouds at 700 feet AGL
overcast cloud deck at 4900 feet AGL
Weather: -SHSN  (light snow showers)

METAR text: EFIV 060150Z AUTO 23006KT 9999 BKN007 M05/M06 Q1000
Conditions at: EFIV (IVALO , FI) observed 0150 UTC 06 December 2022
Temperature: -5.0°C (23°F)
Dewpoint: -6.0°C (21°F) [RH = 93%]
Pressure (altimeter): 29.53 inches Hg (1000.0 mb)
Winds: from the SW (230 degrees) at 7 MPH (6 knots; 3.1 m/s)
Visibility: 6 or more miles (10+ km)
Ceiling: 700 feet AGL
Clouds: broken clouds at 700 feet AGL
Weather: no significant weather observed at this time

METAR text: EFIV 060120Z AUTO 22007KT 9999 SCT008 M05/M06 Q1000
Conditions at: EFIV (IVALO , FI) observed 0120 UTC 06 December 2022
Temperature: -5.0°C (23°F)
Dewpoint: -6.0°C (21°F) [RH = 93%]
Pressure (altimeter): 29.53 inches Hg (1000.0 mb)
Winds: from the SW (220 degrees) at 8 MPH (7 knots; 3.6 m/s)
Visibility: 6 or more miles (10+ km)
Ceiling: at least 12,000 feet AGL
Clouds: scattered clouds at 800 feet AGL
Weather: no significant weather observed at this time

METAR text: EFIV 060050Z AUTO 22008KT 9999 BKN008 M05/M06 Q1000
Conditions at: EFIV (IVALO , FI) observed 0050 UTC 06 December 2022
Temperature: -5.0°C (23°F)
Dewpoint: -6.0°C (21°F) [RH = 93%]
Pressure (altimeter): 29.53 inches Hg (1000.0 mb)
Winds: from the SW (220 degrees) at 9 MPH (8 knots; 4.1 m/s)
Visibility: 6 or more miles (10+ km)
Ceiling: 800 feet AGL
Clouds: broken clouds at 800 feet AGL
Weather: no significant weather observed at this time

METAR text: EFIV 060020Z AUTO 22009KT 9999 BKN008 M05/M06 Q1001
Conditions at: EFIV (IVALO , FI) observed 0020 UTC 06 December 2022
Temperature: -5.0°C (23°F)
Dewpoint: -6.0°C (21°F) [RH = 93%]
Pressure (altimeter): 29.56 inches Hg (1001.0 mb)
Winds: from the SW (220 degrees) at 10 MPH (9 knots; 4.6 m/s)
Visibility: 6 or more miles (10+ km)
Ceiling: 800 feet AGL
Clouds: broken clouds at 800 feet AGL
Weather: no significant weather observed at this time

METAR text: EFIV 052350Z AUTO 22009KT 9999 BKN007 M05/M06 Q1001
Conditions at: EFIV (IVALO , FI) observed 2350 UTC 05 December 2022
Temperature: -5.0°C (23°F)
Dewpoint: -6.0°C (21°F) [RH = 93%]
Pressure (altimeter): 29.56 inches Hg (1001.0 mb)
Winds: from the SW (220 degrees) at 10 MPH (9 knots; 4.6 m/s)
Visibility: 6 or more miles (10+ km)
Ceiling: 700 feet AGL
Clouds: broken clouds at 700 feet AGL
Weather: no significant weather observed at this time

METAR text: EFIV 052320Z AUTO 23010KT 9999 BKN007 M05/M06 Q1001
Conditions at: EFIV (IVALO , FI) observed 2320 UTC 05 December 2022
Temperature: -5.0°C (23°F)
Dewpoint: -6.0°C (21°F) [RH = 93%]
Pressure (altimeter): 29.56 inches Hg (1001.0 mb)
Winds: from the SW (230 degrees) at 12 MPH (10 knots; 5.1 m/s)
Visibility: 6 or more miles (10+ km)
Ceiling: 700 feet AGL
Clouds: broken clouds at 700 feet AGL
Weather: no significant weather observed at this time

METAR text: EFIV 052250Z AUTO 22009KT CAVOK M05/M07 Q1002
Conditions at: EFIV (IVALO , FI) observed 2250 UTC 05 December 2022
Temperature: -5.0°C (23°F)
Dewpoint: -7.0°C (19°F) [RH = 86%]
Pressure (altimeter): 29.59 inches Hg (1002.0 mb)
Winds: from the SW (220 degrees) at 10 MPH (9 knots; 4.6 m/s)
Visibility: 6 or more miles (10+ km)
Ceiling: ceiling and visibility are OK
Clouds: unknown
Weather: no significant weather observed at this time

METAR text: EFIV 052220Z AUTO 23006KT 9999 FEW036 M05/M07 Q1002
Conditions at: EFIV (IVALO , FI) observed 2220 UTC 05 December 2022
Temperature: -5.0°C (23°F)
Dewpoint: -7.0°C (19°F) [RH = 86%]
Pressure (altimeter): 29.59 inches Hg (1002.0 mb)
Winds: from the SW (230 degrees) at 7 MPH (6 knots; 3.1 m/s)
Visibility: 6 or more miles (10+ km)
Ceiling: at least 12,000 feet AGL
Clouds: few clouds at 3600 feet AGL
Weather: no significant weather observed at this time

METAR text: EFIV 052150Z AUTO 22007KT 9999 SCT035 M05/M07 Q1002
Conditions at: EFIV (IVALO , FI) observed 2150 UTC 05 December 2022
Temperature: -5.0°C (23°F)
Dewpoint: -7.0°C (19°F) [RH = 86%]
Pressure (altimeter): 29.59 inches Hg (1002.0 mb)
Winds: from the SW (220 degrees) at 8 MPH (7 knots; 3.6 m/s)
Visibility: 6 or more miles (10+ km)
Ceiling: at least 12,000 feet AGL
Clouds: scattered clouds at 3500 feet AGL
Weather: no significant weather observed at this time

METAR text: EFIV 052120Z AUTO 22008KT 9999 OVC031 M05/M07 Q1002
Conditions at: EFIV (IVALO , FI) observed 2120 UTC 05 December 2022
Temperature: -5.0°C (23°F)
Dewpoint: -7.0°C (19°F) [RH = 86%]
Pressure (altimeter): 29.59 inches Hg (1002.0 mb)
Winds: from the SW (220 degrees) at 9 MPH (8 knots; 4.1 m/s)
Visibility: 6 or more miles (10+ km)
Ceiling: 3100 feet AGL
Clouds: overcast cloud deck at 3100 feet AGL
Weather: no significant weather observed at this time

METAR text: EFIV 052050Z AUTO 23009KT 9999 BKN027 OVC048 M05/M07 Q1003
Conditions at: EFIV (IVALO , FI) observed 2050 UTC 05 December 2022
Temperature: -5.0°C (23°F)
Dewpoint: -7.0°C (19°F) [RH = 86%]
Pressure (altimeter): 29.62 inches Hg (1003.0 mb)
Winds: from the SW (230 degrees) at 10 MPH (9 knots; 4.6 m/s)
Visibility: 6 or more miles (10+ km)
Ceiling: 2700 feet AGL
Clouds: broken clouds at 2700 feet AGL
overcast cloud deck at 4800 feet AGL
Weather: no significant weather observed at this time

METAR text: EFIV 052020Z 22009KT 9999 -SN FEW021 OVC047 M05/M07 Q1003
Conditions at: EFIV (IVALO , FI) observed 2020 UTC 05 December 2022
Temperature: -5.0°C (23°F)
Dewpoint: -7.0°C (19°F) [RH = 86%]
Pressure (altimeter): 29.62 inches Hg (1003.0 mb)
Winds: from the SW (220 degrees) at 10 MPH (9 knots; 4.6 m/s)
Visibility: 6 or more miles (10+ km)
Ceiling: 4700 feet AGL
Clouds: few clouds at 2100 feet AGL
overcast cloud deck at 4700 feet AGL
Weather: -SN  (light snow)

METAR text: EFIV 051950Z 22010KT 9999 -SN FEW021 OVC047 M05/M07 Q1003
Conditions at: EFIV (IVALO , FI) observed 1950 UTC 05 December 2022
Temperature: -5.0°C (23°F)
Dewpoint: -7.0°C (19°F) [RH = 86%]
Pressure (altimeter): 29.62 inches Hg (1003.0 mb)
Winds: from the SW (220 degrees) at 12 MPH (10 knots; 5.1 m/s)
Visibility: 6 or more miles (10+ km)
Ceiling: 4700 feet AGL
Clouds: few clouds at 2100 feet AGL
overcast cloud deck at 4700 feet AGL
Weather: -SN  (light snow)

METAR text: EFIV 051920Z 23008KT 9999 -SN FEW029 M05/M07 Q1003
Conditions at: EFIV (IVALO , FI) observed 1920 UTC 05 December 2022
Temperature: -5.0°C (23°F)
Dewpoint: -7.0°C (19°F) [RH = 86%]
Pressure (altimeter): 29.62 inches Hg (1003.0 mb)
Winds: from the SW (230 degrees) at 9 MPH (8 knots; 4.1 m/s)
Visibility: 6 or more miles (10+ km)
Ceiling: at least 12,000 feet AGL
Clouds: few clouds at 2900 feet AGL
Weather: -SN  (light snow)

METAR text: EFIV 051850Z AUTO 22009KT 9999 -SN SCT018 SCT026 M06/M07 Q1004
Conditions at: EFIV (IVALO , FI) observed 1850 UTC 05 December 2022
Temperature: -6.0°C (21°F)
Dewpoint: -7.0°C (19°F) [RH = 93%]
Pressure (altimeter): 29.65 inches Hg (1004.0 mb)
Winds: from the SW (220 degrees) at 10 MPH (9 knots; 4.6 m/s)
Visibility: 6 or more miles (10+ km)
Ceiling: at least 12,000 feet AGL
Clouds: scattered clouds at 1800 feet AGL
scattered clouds at 2600 feet AGL
Weather: -SN  (light snow)

METAR text: EFIV 051820Z AUTO 23009KT 6000 -SHSN OVC018 M06/M07 Q1004
Conditions at: EFIV (IVALO , FI) observed 1820 UTC 05 December 2022
Temperature: -6.0°C (21°F)
Dewpoint: -7.0°C (19°F) [RH = 93%]
Pressure (altimeter): 29.65 inches Hg (1004.0 mb)
Winds: from the SW (230 degrees) at 10 MPH (9 knots; 4.6 m/s)
Visibility: 4 miles ( 6 km)
Ceiling: 1800 feet AGL
Clouds: overcast cloud deck at 1800 feet AGL
Weather: -SHSN  (light snow showers)

Forecast for: EFIV (IVALO , FI)
Text: TAF EFIV 070534Z 0706/0715 23005KT 9999 OVC008
Forecast period: 0600 to 1500 UTC 07 December 2022
Forecast type: FROM: standard forecast or significant change
Winds: from the SW (230 degrees) at 6 MPH (5 knots; 2.6 m/s)
Visibility: 6 or more miles (10+ km)
Ceiling: 800 feet AGL
Clouds: overcast cloud deck at 800 feet AGL
Weather: no significant weather forecast for this period
Text: TEMPO 0706/0715 4000 -SN BKN014
Forecast period: 0600 to 1500 UTC 07 December 2022
Forecast type: TEMPORARY: The following changes expected for less than half the time period
Visibility: 2.49 miles (4.01 km)
Ceiling: 1400 feet AGL
Clouds: broken clouds at 1400 feet AGL
Weather: -SN  (light snow)